Time;durP1;ratioP1;P1;durP2;ratioP2;P2;SDS_P1;SDS_P2;PMS_P1;PMS_P2;Temp;Humidity;BMP_temperature;BMP_pressure;BME280_temperature;BME280_humidity;BME280_pressure;Samples;Min_cycle;Max_cycle;Signal;HPM_P1;HPM_P2
2023/02/24 00:01:07;;;;;;;31.25;14.82;;;10.90;99.90;;;;;;5069318;28;20445;-56
2023/02/24 00:03:35;;;;;;;38.10;14.95;;;10.80;99.90;;;;;;5069154;28;20437;-56
2023/02/24 00:06:04;;;;;;;35.05;15.80;;;10.80;99.90;;;;;;5068872;28;20837;-56
2023/02/24 00:08:30;;;;;;;36.87;16.30;;;10.70;1.00;;;;;;5068395;28;20856;-56
2023/02/24 00:10:56;;;;;;;32.65;15.00;;;10.70;1.00;;;;;;5070703;28;20957;-57
2023/02/24 00:13:22;;;;;;;32.15;15.65;;;10.70;1.00;;;;;;5072289;28;20383;-56
2023/02/24 00:16:01;;;;;;;32.97;16.30;;;10.70;1.00;;;;;;5073248;28;20419;-56
2023/02/24 00:18:27;;;;;;;35.75;15.15;;;10.80;1.00;;;;;;5072224;28;21016;-56
2023/02/24 00:20:56;;;;;;;36.35;15.65;;;10.70;1.00;;;;;;5072710;28;20392;-56
2023/02/24 00:23:22;;;;;;;32.33;15.70;;;10.70;1.00;;;;;;5071929;28;20376;-56
2023/02/24 00:25:56;;;;;;;36.97;15.67;;;10.60;1.00;;;;;;5071094;28;20418;-56
2023/02/24 00:28:23;;;;;;;30.83;15.20;;;10.70;1.00;;;;;;5072141;28;20411;-56
2023/02/24 00:30:49;;;;;;;28.73;14.07;;;10.70;1.00;;;;;;5073104;28;20415;-56
2023/02/24 00:33:20;;;;;;;33.88;16.08;;;10.70;1.00;;;;;;5072311;28;20411;-56
2023/02/24 00:35:45;;;;;;;32.47;15.13;;;10.70;1.00;;;;;;5072523;28;20421;-56
2023/02/24 00:38:12;;;;;;;32.15;14.45;;;10.70;1.00;;;;;;5071986;28;20480;-56
2023/02/24 00:40:39;;;;;;;36.53;16.13;;;10.70;1.00;;;;;;5072406;28;20380;-56
2023/02/24 00:43:07;;;;;;;32.83;14.10;;;10.70;1.00;;;;;;5072326;28;20380;-56
2023/02/24 00:45:37;;;;;;;33.05;15.82;;;10.60;1.00;;;;;;5072384;28;20391;-56
2023/02/24 00:48:04;;;;;;;31.15;14.65;;;10.60;1.00;;;;;;5088674;28;20465;-56
2023/02/24 00:50:32;;;;;;;27.45;14.05;;;10.50;1.00;;;;;;5091949;28;20381;-56
2023/02/24 00:52:58;;;;;;;31.13;14.80;;;10.50;1.00;;;;;;5088384;28;20864;-56
2023/02/24 00:55:32;;;;;;;27.80;14.00;;;10.50;1.00;;;;;;5069355;28;20407;-56
2023/02/24 00:58:02;;;;;;;30.77;14.68;;;10.50;1.00;;;;;;5070671;28;20773;-55
2023/02/24 01:00:29;;;;;;;25.70;13.70;;;10.50;1.00;;;;;;5070903;28;20642;-56
2023/02/24 01:02:58;;;;;;;32.30;14.18;;;10.50;1.00;;;;;;5071515;28;20410;-56
2023/02/24 01:05:26;;;;;;;23.83;12.93;;;10.40;1.00;;;;;;5070079;28;20459;-56
2023/02/24 01:07:52;;;;;;;32.90;14.25;;;10.50;1.00;;;;;;5070845;28;20436;-56
2023/02/24 01:10:19;;;;;;;33.28;15.10;;;10.50;1.00;;;;;;5069796;28;20390;-56
2023/02/24 01:12:52;;;;;;;30.38;15.60;;;10.30;1.00;;;;;;5071637;28;20384;-56
2023/02/24 01:15:20;;;;;;;30.27;15.05;;;10.30;1.00;;;;;;5070717;28;20458;-56
2023/02/24 01:17:46;;;;;;;34.75;15.25;;;10.30;1.00;;;;;;5071707;28;20412;-56
2023/02/24 01:20:17;;;;;;;34.33;14.88;;;10.40;1.00;;;;;;5070861;28;20438;-57
2023/02/24 01:22:55;;;;;;;30.80;13.80;;;10.40;1.00;;;;;;5071066;28;21220;-56
2023/02/24 01:25:21;;;;;;;31.63;15.57;;;10.50;1.00;;;;;;5070829;28;20387;-56
2023/02/24 01:27:47;;;;;;;29.70;15.45;;;10.40;1.00;;;;;;5071473;28;20995;-56
2023/02/24 01:30:14;;;;;;;28.10;14.05;;;10.50;1.00;;;;;;5070519;28;20475;-56
2023/02/24 01:32:45;;;;;;;29.73;15.48;;;10.50;1.00;;;;;;5071372;28;20384;-56
2023/02/24 01:35:11;;;;;;;32.03;15.37;;;10.50;1.00;;;;;;5070801;28;20368;-57
2023/02/24 01:37:37;;;;;;;36.78;15.35;;;10.40;1.00;;;;;;5071209;28;20418;-56
2023/02/24 01:40:10;;;;;;;29.42;14.00;;;10.30;1.00;;;;;;5070781;28;20407;-56
2023/02/24 01:42:37;;;;;;;32.57;15.47;;;10.40;1.00;;;;;;5070955;28;20455;-56
2023/02/24 01:45:11;;;;;;;28.70;14.55;;;10.30;1.00;;;;;;5071597;28;20382;-56
2023/02/24 01:47:37;;;;;;;32.75;16.02;;;10.20;1.00;;;;;;5071042;28;20427;-56
2023/02/24 01:50:04;;;;;;;31.58;15.30;;;10.10;1.00;;;;;;5071298;28;20405;-56
2023/02/24 01:52:34;;;;;;;35.70;17.23;;;10.00;1.00;;;;;;5070644;28;20387;-56
2023/02/24 01:55:12;;;;;;;39.35;17.40;;;10.00;1.00;;;;;;5071181;28;20400;-56
2023/02/24 01:57:38;;;;;;;34.65;15.95;;;10.00;1.00;;;;;;5070787;28;20490;-56
2023/02/24 02:00:10;;;;;;;35.72;15.95;;;9.90;1.00;;;;;;5070793;28;20715;-56
2023/02/24 02:02:41;;;;;;;37.58;17.90;;;9.80;1.00;;;;;;5070981;28;20380;-56
2023/02/24 02:05:08;;;;;;;34.63;15.90;;;9.80;1.00;;;;;;5070948;28;20376;-56
2023/02/24 02:07:37;;;;;;;35.72;15.98;;;9.80;1.00;;;;;;5071018;28;20376;-56
2023/02/24 02:10:06;;;;;;;34.83;16.83;;;9.90;1.00;;;;;;5070833;28;20379;-56
2023/02/24 02:12:37;;;;;;;31.60;15.45;;;9.90;1.00;;;;;;5069879;28;20407;-56
2023/02/24 02:15:07;;;;;;;37.88;17.00;;;9.90;1.00;;;;;;5070305;28;20718;-56
2023/02/24 02:17:57;;;;;;;32.20;15.47;;;10.00;1.00;;;;;;5069785;28;20403;-56
2023/02/24 02:21:07;;;;;;;34.50;15.93;;;10.00;1.00;;;;;;5067892;28;20410;-56
2023/02/24 02:23:44;;;;;;;32.83;15.17;;;10.00;1.00;;;;;;5025707;28;20835;-56
2023/02/24 02:26:20;;;;;;;33.33;16.23;;;10.00;1.00;;;;;;5062380;28;20400;-56
2023/02/24 02:29:04;;;;;;;36.42;16.15;;;10.00;1.00;;;;;;5070057;28;20399;-56
2023/02/24 02:31:56;;;;;;;37.97;16.65;;;9.90;1.00;;;;;;5054388;28;21013;-55
2023/02/24 02:34:53;;;;;;;37.35;18.17;;;9.90;1.00;;;;;;5088711;28;20382;-56
2023/02/24 02:37:39;;;;;;;33.27;15.93;;;9.90;1.00;;;;;;5074855;28;20415;-56
2023/02/24 02:40:30;;;;;;;33.85;15.45;;;10.00;1.00;;;;;;5089563;28;20398;-56
2023/02/24 02:43:23;;;;;;;31.88;16.30;;;10.00;1.00;;;;;;5089653;28;20406;-56
2023/02/24 02:46:05;;;;;;;32.92;15.43;;;10.00;1.00;;;;;;5090365;28;20438;-56
2023/02/24 02:48:40;;;;;;;33.72;16.35;;;10.10;1.00;;;;;;5089494;28;20378;-56
2023/02/24 02:51:26;;;;;;;30.38;15.80;;;10.00;1.00;;;;;;5090065;28;20405;-56
2023/02/24 02:54:06;;;;;;;36.60;16.67;;;10.00;1.00;;;;;;5089795;28;20410;-56
2023/02/24 02:56:47;;;;;;;35.03;16.40;;;10.00;1.00;;;;;;5088829;28;20517;-56
2023/02/24 02:59:21;;;;;;;35.28;17.30;;;10.00;1.00;;;;;;5089097;28;20467;-56
2023/02/24 03:01:50;;;;;;;42.50;18.80;;;10.00;1.00;;;;;;5089841;28;20394;-56
2023/02/24 03:04:21;;;;;;;36.17;16.92;;;10.00;1.00;;;;;;5088796;28;20394;-56
2023/02/24 03:06:55;;;;;;;36.25;17.35;;;10.00;1.00;;;;;;5089544;28;20402;-56
2023/02/24 03:09:31;;;;;;;35.05;16.52;;;9.90;1.00;;;;;;5088791;28;20882;-56
2023/02/24 03:12:07;;;;;;;40.50;16.80;;;9.90;1.00;;;;;;5089628;28;20394;-56
2023/02/24 03:14:37;;;;;;;37.13;16.20;;;9.90;1.00;;;;;;5088772;28;20398;-56
2023/02/24 03:17:11;;;;;;;37.05;17.05;;;9.80;1.00;;;;;;5089616;28;20402;-56
2023/02/24 03:19:39;;;;;;;38.05;18.30;;;9.80;1.00;;;;;;5089649;28;20439;-56
2023/02/24 03:22:11;;;;;;;40.42;17.30;;;9.80;1.00;;;;;;5089854;28;20406;-55
2023/02/24 03:24:38;;;;;;;36.15;16.73;;;9.70;1.00;;;;;;5089219;28;20405;-56
2023/02/24 03:27:21;;;;;;;44.30;18.10;;;9.70;1.00;;;;;;5089515;28;20405;-56
2023/02/24 03:29:57;;;;;;;51.03;19.77;;;9.60;1.00;;;;;;5089440;28;20429;-55
2023/02/24 03:32:42;;;;;;;42.15;19.83;;;9.60;1.00;;;;;;5088819;28;20867;-56
2023/02/24 03:35:15;;;;;;;42.05;18.58;;;9.60;1.00;;;;;;5089089;28;20388;-55
2023/02/24 03:37:42;;;;;;;48.35;19.60;;;9.60;1.00;;;;;;5089116;28;20767;-56
2023/02/24 03:40:13;;;;;;;42.45;18.10;;;9.60;1.00;;;;;;5089088;28;20386;-55
2023/02/24 03:42:42;;;;;;;40.28;18.27;;;9.50;1.00;;;;;;5088991;28;20390;-56
2023/02/24 03:45:08;;;;;;;46.78;19.98;;;9.50;1.00;;;;;;5091178;28;20397;-55
2023/02/24 03:47:34;;;;;;;46.77;19.80;;;9.40;1.00;;;;;;5091675;28;20477;-55
2023/02/24 03:50:00;;;;;;;48.25;20.35;;;9.40;1.00;;;;;;5093240;28;20563;-56
2023/02/24 03:52:36;;;;;;;46.33;20.33;;;9.60;1.00;;;;;;5092439;28;20397;-56
2023/02/24 03:55:22;;;;;;;48.40;20.35;;;10.10;1.00;;;;;;5093243;28;20409;-56
2023/02/24 03:58:12;;;;;;;46.50;20.50;;;9.30;1.00;;;;;;5093259;28;20406;-56
2023/02/24 04:01:04;;;;;;;51.05;19.63;;;9.40;1.00;;;;;;5092924;28;20927;-56
2023/02/24 04:03:56;;;;;;;50.75;20.92;;;9.30;1.00;;;;;;5092451;28;20393;-56
2023/02/24 04:06:32;;;;;;;52.53;21.20;;;9.30;1.00;;;;;;5092194;28;20433;-56
2023/02/24 04:09:10;;;;;;;50.50;20.50;;;9.20;1.00;;;;;;5091453;28;20425;-59
2023/02/24 04:11:48;;;;;;;55.20;21.30;;;9.20;1.00;;;;;;5092363;28;20389;-56
2023/02/24 04:14:23;;;;;;;53.45;22.25;;;9.10;1.00;;;;;;5092645;28;20390;-57
2023/02/24 04:17:19;;;;;;;52.53;20.67;;;9.00;1.00;;;;;;5093265;28;20492;-56
2023/02/24 04:19:48;;;;;;;50.72;20.35;;;9.00;1.00;;;;;;5092913;28;20391;-57
2023/02/24 04:22:18;;;;;;;48.15;21.08;;;8.90;1.00;;;;;;5090929;28;20458;-57
2023/02/24 04:24:49;;;;;;;52.75;22.30;;;8.80;1.00;;;;;;5092593;28;20943;-56
2023/02/24 04:27:16;;;;;;;52.40;20.10;;;8.80;1.00;;;;;;5092190;28;20492;-57
2023/02/24 04:29:48;;;;;;;52.67;21.23;;;8.90;1.00;;;;;;5093121;28;20374;-56
2023/02/24 04:32:18;;;;;;;57.03;22.65;;;8.90;1.00;;;;;;5091995;28;20473;-56
2023/02/24 04:34:44;;;;;;;56.63;21.45;;;8.90;1.00;;;;;;5092388;28;20869;-56
2023/02/24 04:37:10;;;;;;;55.40;22.70;;;9.00;1.00;;;;;;5092313;28;20414;-56
2023/02/24 04:39:37;;;;;;;52.25;20.85;;;9.00;1.00;;;;;;5091863;28;20740;-56
2023/02/24 04:42:04;;;;;;;56.40;23.65;;;9.10;1.00;;;;;;5092260;28;20405;-56
2023/02/24 04:44:31;;;;;;;58.20;22.58;;;9.20;1.00;;;;;;5091626;28;20397;-56
2023/02/24 04:46:57;;;;;;;55.10;22.75;;;9.20;1.00;;;;;;5063209;28;20487;-56
2023/02/24 04:49:24;;;;;;;48.25;20.52;;;9.30;1.00;;;;;;5083697;28;20397;-56
2023/02/24 04:51:50;;;;;;;52.47;21.00;;;10.60;1.00;;;;;;5072276;28;20738;-56
2023/02/24 04:54:18;;;;;;;55.67;21.50;;;9.80;1.00;;;;;;5077087;28;20456;-56
2023/02/24 04:56:49;;;;;;;52.97;21.23;;;9.20;1.00;;;;;;5091157;28;20410;-56
2023/02/24 04:59:19;;;;;;;56.90;23.75;;;9.20;1.00;;;;;;5091385;28;20413;-56
2023/02/24 05:01:45;;;;;;;67.05;24.17;;;9.10;1.00;;;;;;5072706;28;20389;-55
2023/02/24 05:04:12;;;;;;;58.63;21.63;;;9.70;1.00;;;;;;5087774;28;20415;-56
2023/02/24 05:06:42;;;;;;;59.90;21.55;;;9.00;1.00;;;;;;5088867;28;20386;-56
2023/02/24 05:09:13;;;;;;;53.92;22.98;;;9.70;1.00;;;;;;5090930;28;20401;-56
2023/02/24 05:11:44;;;;;;;51.03;20.23;;;8.90;1.00;;;;;;5091851;28;20489;-55
2023/02/24 05:14:15;;;;;;;56.67;22.05;;;8.70;1.00;;;;;;5086419;28;20419;-56
2023/02/24 05:16:49;;;;;;;55.75;22.73;;;8.70;1.00;;;;;;5078545;28;20414;-55
2023/02/24 05:22:03;;;;;;;54.77;22.37;;;8.70;1.00;;;;;;5091617;28;20451;-56
2023/02/24 05:24:30;;;;;;;58.63;22.42;;;9.10;1.00;;;;;;5090636;28;20433;-56
2023/02/24 05:26:59;;;;;;;56.40;22.35;;;8.80;1.00;;;;;;5079422;28;20417;-56
2023/02/24 05:29:32;;;;;;;56.88;23.70;;;8.90;1.00;;;;;;5078274;28;20387;-56
2023/02/24 05:32:06;;;;;;;62.43;23.93;;;8.90;1.00;;;;;;5086823;28;20386;-56
2023/02/24 05:34:32;;;;;;;68.27;22.67;;;8.80;1.00;;;;;;5076934;28;20402;-55
2023/02/24 05:37:00;;;;;;;68.30;22.90;;;8.80;1.00;;;;;;5052356;28;20413;-56
2023/02/24 05:39:27;;;;;;;55.72;22.38;;;8.70;1.00;;;;;;5088933;28;20390;-55
2023/02/24 05:41:55;;;;;;;58.72;23.58;;;8.80;1.00;;;;;;5091117;28;20386;-56
2023/02/24 05:44:24;;;;;;;60.88;23.60;;;8.80;1.00;;;;;;5090229;28;20385;-56
2023/02/24 05:46:56;;;;;;;65.38;23.25;;;8.80;1.00;;;;;;5091003;28;20389;-56
2023/02/24 05:49:26;;;;;;;60.25;24.08;;;8.80;1.00;;;;;;5085115;28;20786;-59
2023/02/24 05:51:55;;;;;;;60.08;22.17;;;8.80;1.00;;;;;;5070970;28;20401;-56
2023/02/24 05:54:30;;;;;;;65.13;23.52;;;8.80;1.00;;;;;;5049746;28;20381;-55
2023/02/24 05:57:01;;;;;;;61.77;22.37;;;8.70;1.00;;;;;;5050357;28;20424;-56
2023/02/24 05:59:31;;;;;;;63.47;22.75;;;8.70;1.00;;;;;;5087263;28;20400;-56
2023/02/24 06:02:05;;;;;;;59.72;22.75;;;8.80;1.00;;;;;;5057777;28;20734;-56
2023/02/24 06:04:54;;;;;;;61.13;22.65;;;8.80;1.00;;;;;;5065720;28;20744;-56
2023/02/24 06:07:33;;;;;;;63.05;23.02;;;8.80;1.00;;;;;;5088958;28;20448;-56
2023/02/24 06:09:59;;;;;;;57.47;21.05;;;9.10;1.00;;;;;;5089650;28;20759;-55
2023/02/24 06:12:30;;;;;;;57.35;21.73;;;8.90;1.00;;;;;;5077818;28;20901;-56
2023/02/24 06:14:59;;;;;;;56.55;22.00;;;8.90;1.00;;;;;;5063596;28;20389;-55
2023/02/24 06:17:25;;;;;;;60.65;21.98;;;8.80;1.00;;;;;;5079334;28;20402;-56
2023/02/24 06:19:52;;;;;;;55.05;19.85;;;8.90;1.00;;;;;;5090641;28;20378;-56
2023/02/24 06:22:21;;;;;;;53.88;21.40;;;8.90;1.00;;;;;;5082136;28;20813;-56
2023/02/24 06:24:48;;;;;;;57.13;20.83;;;8.90;1.00;;;;;;5090508;28;20805;-60
2023/02/24 06:27:18;;;;;;;60.92;20.05;;;8.90;1.00;;;;;;5089666;28;20428;-56
2023/02/24 06:29:48;;;;;;;51.40;18.98;;;8.80;1.00;;;;;;5090017;28;20879;-56
2023/02/24 06:32:17;;;;;;;51.07;18.70;;;8.70;1.00;;;;;;5090188;28;20406;-56
2023/02/24 06:34:43;;;;;;;54.03;20.02;;;8.70;1.00;;;;;;5090364;28;20528;-55
2023/02/24 06:37:12;;;;;;;48.37;18.37;;;8.80;1.00;;;;;;5090138;28;20536;-56
2023/02/24 06:39:38;;;;;;;50.97;18.77;;;8.80;1.00;;;;;;5089927;28;20432;-56
2023/02/24 06:42:07;;;;;;;50.60;18.92;;;8.80;1.00;;;;;;5090379;28;20448;-56
2023/02/24 06:44:37;;;;;;;50.63;18.42;;;8.80;1.00;;;;;;5089096;28;21125;-56
2023/02/24 06:47:04;;;;;;;51.00;19.40;;;8.80;1.00;;;;;;5090112;28;20555;-56
2023/02/24 06:49:30;;;;;;;52.42;19.67;;;8.80;1.00;;;;;;5089291;28;20378;-56
2023/02/24 06:51:56;;;;;;;51.72;18.17;;;8.80;1.00;;;;;;5089904;28;20858;-56
2023/02/24 06:54:24;;;;;;;53.40;18.90;;;9.10;1.00;;;;;;5089392;28;20486;-56
2023/02/24 06:56:51;;;;;;;51.08;19.25;;;8.80;1.00;;;;;;5089877;28;20394;-56
2023/02/24 06:59:27;;;;;;;48.45;18.73;;;8.90;1.00;;;;;;5089387;28;20878;-57
2023/02/24 07:01:53;;;;;;;49.80;18.48;;;8.80;1.00;;;;;;5083190;28;20538;-56
2023/02/24 07:04:19;;;;;;;46.50;17.33;;;8.80;1.00;;;;;;5071358;28;20406;-57
2023/02/24 07:06:50;;;;;;;56.42;19.23;;;8.90;1.00;;;;;;5068449;28;21036;-56
2023/02/24 07:09:18;;;;;;;54.35;19.35;;;9.00;1.00;;;;;;5056312;28;20588;-57
2023/02/24 07:11:50;;;;;;;56.25;19.63;;;9.00;1.00;;;;;;5086231;28;20460;-56
2023/02/24 07:14:17;;;;;;;47.90;18.43;;;9.00;1.00;;;;;;5085833;28;20386;-57
2023/02/24 07:16:44;;;;;;;57.22;18.80;;;9.10;1.00;;;;;;5089153;28;20878;-56
2023/02/24 07:19:12;;;;;;;49.95;18.05;;;9.10;1.00;;;;;;5089208;28;20409;-56
2023/02/24 07:21:42;;;;;;;54.20;19.80;;;9.10;99.90;;;;;;5088791;28;20859;-56
2023/02/24 07:24:12;;;;;;;48.97;19.23;;;9.00;99.90;;;;;;5082560;28;20417;-56
2023/02/24 07:26:41;;;;;;;51.63;18.90;;;9.10;1.00;;;;;;5088163;28;21228;-56
2023/02/24 07:29:10;;;;;;;51.75;19.52;;;9.10;1.00;;;;;;5089611;28;20473;-56
2023/02/24 07:31:37;;;;;;;54.00;19.35;;;8.60;1.00;;;;;;5088775;28;21106;-55
2023/02/24 07:34:05;;;;;;;55.33;19.40;;;9.60;1.00;;;;;;5089602;28;20462;-55
2023/02/24 07:36:37;;;;;;;50.47;18.07;;;9.20;99.90;;;;;;5088421;28;20413;-56
2023/02/24 07:39:04;;;;;;;49.58;18.55;;;9.20;1.00;;;;;;5087041;28;20397;-55
2023/02/24 07:41:30;;;;;;;51.13;17.30;;;9.20;99.90;;;;;;5081877;28;20386;-56
2023/02/24 07:43:58;;;;;;;45.93;17.70;;;9.20;99.90;;;;;;5089354;28;20389;-55
2023/02/24 07:46:26;;;;;;;51.05;18.63;;;9.10;99.90;;;;;;5088333;28;20386;-56
2023/02/24 07:48:53;;;;;;;54.35;18.67;;;9.00;1.00;;;;;;5088980;28;20395;-55
2023/02/24 07:51:25;;;;;;;46.65;17.17;;;9.00;1.00;;;;;;5088004;28;20381;-56
2023/02/24 07:53:55;;;;;;;51.60;18.77;;;10.20;1.00;;;;;;5088801;28;20489;-55
2023/02/24 07:56:25;;;;;;;55.45;18.23;;;9.10;1.00;;;;;;5087740;28;20414;-56
2023/02/24 07:58:57;;;;;;;57.40;19.85;;;9.20;1.00;;;;;;5089031;28;20386;-56
2023/02/24 08:01:26;;;;;;;56.92;18.55;;;9.30;1.00;;;;;;5088693;28;20381;-56
2023/02/24 08:04:00;;;;;;;55.17;18.52;;;9.40;1.00;;;;;;5088857;28;20386;-56
2023/02/24 08:06:36;;;;;;;52.90;19.90;;;9.50;99.90;;;;;;5087986;28;20409;-56
2023/02/24 08:11:56;;;;;;;50.55;18.98;;;9.50;99.90;;;;;;5067333;28;20744;-56
2023/02/24 08:14:31;;;;;;;49.20;17.53;;;9.50;99.90;;;;;;5087556;28;20387;-56
2023/02/24 08:17:01;;;;;;;51.97;17.92;;;9.50;99.90;;;;;;5088713;28;20406;-56
2023/02/24 08:19:38;;;;;;;50.40;18.80;;;9.70;99.90;;;;;;5088411;28;20473;-56
2023/02/24 08:22:34;;;;;;;46.30;17.85;;;9.80;99.90;;;;;;5087908;28;20967;-56
2023/02/24 08:25:04;;;;;;;51.38;17.98;;;9.90;99.90;;;;;;5088149;28;20405;-57
2023/02/24 08:27:32;;;;;;;57.25;19.63;;;9.90;1.00;;;;;;5087922;28;20420;-56
2023/02/24 08:30:01;;;;;;;48.70;18.43;;;9.80;1.00;;;;;;5089081;28;20385;-56
2023/02/24 08:32:45;;;;;;;51.95;17.50;;;9.80;1.00;;;;;;5090290;28;20840;-56
2023/02/24 08:35:15;;;;;;;45.60;18.15;;;9.60;1.00;;;;;;5092482;28;20406;-56
2023/02/24 08:37:49;;;;;;;47.13;17.20;;;9.70;39.10;;;;;;5089162;28;20546;-56
2023/02/24 08:42:59;;;;;;;50.95;16.23;;;9.80;99.90;;;;;;5092489;28;20476;-56
2023/02/24 08:45:32;;;;;;;42.35;15.95;;;9.90;81.40;;;;;;5091130;28;20455;-56
2023/02/24 08:47:59;;;;;;;46.45;16.92;;;9.80;1.00;;;;;;5092102;28;20757;-56
2023/02/24 08:50:29;;;;;;;49.70;17.02;;;9.80;1.00;;;;;;5091077;28;20393;-56
2023/02/24 08:52:57;;;;;;;45.80;15.32;;;9.70;44.10;;;;;;5091951;28;20885;-56
2023/02/24 08:55:29;;;;;;;42.55;15.75;;;9.80;1.00;;;;;;5091155;28;20497;-57
2023/02/24 08:58:00;;;;;;;49.65;16.05;;;10.30;99.90;;;;;;5091975;28;20402;-56
2023/02/24 09:00:47;;;;;;;50.55;16.80;;;9.70;99.90;;;;;;5091434;28;20403;-56
2023/02/24 09:03:26;;;;;;;44.00;16.53;;;9.70;37.60;;;;;;5091750;28;20475;-56
2023/02/24 09:06:04;;;;;;;43.25;15.43;;;9.80;99.90;;;;;;5091919;28;20393;-56
2023/02/24 09:08:37;;;;;;;44.22;16.17;;;9.60;99.90;;;;;;5090880;28;20874;-56
2023/02/24 09:11:08;;;;;;;47.17;16.70;;;9.80;99.90;;;;;;5091308;28;20451;-56
2023/02/24 09:13:50;;;;;;;43.13;15.30;;;9.90;99.90;;;;;;5085770;28;20391;-56
2023/02/24 09:16:17;;;;;;;40.67;15.05;;;10.00;99.90;;;;;;5086429;28;20871;-57
2023/02/24 09:18:43;;;;;;;40.38;14.95;;;10.10;99.90;;;;;;5090904;28;20406;-56
2023/02/24 09:24:02;;;;;;;44.58;13.27;;;10.00;88.00;;;;;;5088176;28;20390;-56
2023/02/24 09:26:31;;;;;;;42.95;14.45;;;9.90;99.90;;;;;;5090884;28;20405;-56
2023/02/24 09:28:57;;;;;;;41.75;15.07;;;9.90;99.90;;;;;;5077035;28;20875;-56
2023/02/24 09:31:39;;;;;;;34.90;13.07;;;10.10;1.00;;;;;;5069884;28;20388;-56
2023/02/24 09:34:09;;;;;;;36.63;12.70;;;10.20;1.00;;;;;;5071452;28;20376;-56
2023/02/24 09:36:43;;;;;;;36.97;11.43;;;10.20;1.00;;;;;;5070263;28;20498;-57
2023/02/24 09:39:09;;;;;;;31.30;11.48;;;10.30;1.00;;;;;;5071204;28;20392;-57
2023/02/24 09:41:52;;;;;;;31.42;12.02;;;10.40;1.00;;;;;;5070332;28;20379;-56
2023/02/24 09:44:40;;;;;;;28.50;11.52;;;10.40;99.90;;;;;;5089831;28;20458;-57
2023/02/24 09:47:29;;;;;;;27.67;10.98;;;10.30;99.90;;;;;;5088696;28;20414;-56
2023/02/24 09:50:18;;;;;;;34.63;12.05;;;10.10;1.00;;;;;;5070906;28;20404;-56
2023/02/24 09:52:45;;;;;;;29.17;11.00;;;9.90;1.00;;;;;;5063266;28;20392;-56
2023/02/24 09:55:23;;;;;;;34.85;12.88;;;10.00;99.90;;;;;;5065771;28;20491;-56
2023/02/24 10:01:20;;;;;;;40.45;14.70;;;10.00;1.00;;;;;;5089323;28;21171;-57
2023/02/24 10:04:10;;;;;;;48.17;16.40;;;10.10;1.00;;;;;;5090441;28;20808;-56
2023/02/24 10:06:41;;;;;;;46.77;16.70;;;10.30;1.00;;;;;;5089630;28;20398;-57
2023/02/24 10:09:34;;;;;;;48.35;15.68;;;10.60;99.90;;;;;;5089825;28;20948;-56
2023/02/24 10:12:10;;;;;;;49.65;16.00;;;10.80;3.60;;;;;;5050639;28;20480;-57
2023/02/24 10:17:46;;;;;;;49.20;17.33;;;10.90;99.90;;;;;;5087728;28;20502;-56
2023/02/24 10:20:29;;;;;;;56.30;18.20;;;10.70;1.00;;;;;;5079144;28;20401;-57
2023/02/24 10:23:08;;;;;;;47.50;16.15;;;10.70;1.00;;;;;;5090328;28;20397;-57
2023/02/24 10:25:55;;;;;;;48.63;16.52;;;10.60;1.00;;;;;;5072794;28;20497;-56
2023/02/24 10:29:07;;;;;;;48.85;16.60;;;10.50;99.90;;;;;;5083225;28;20413;-57
2023/02/24 10:32:15;;;;;;;45.78;15.90;;;10.20;1.00;;;;;;5060616;28;20540;-56
2023/02/24 10:34:43;;;;;;;48.03;16.77;;;10.20;1.00;;;;;;5049323;28;20393;-56
2023/02/24 10:37:18;;;;;;;46.40;15.90;;;10.00;99.90;;;;;;5086574;28;20491;-56
2023/02/24 10:39:48;;;;;;;53.17;17.00;;;10.00;1.00;;;;;;5089101;28;20394;-56
2023/02/24 10:42:33;;;;;;;49.00;16.70;;;10.00;1.00;;;;;;5090303;28;20378;-56
2023/02/24 10:45:18;;;;;;;50.75;16.65;;;10.00;1.00;;;;;;5069493;28;20867;-56
2023/02/24 10:47:56;;;;;;;50.45;17.25;;;10.00;1.00;;;;;;5089159;28;20782;-56
2023/02/24 10:50:31;;;;;;;47.08;14.57;;;9.90;99.90;;;;;;5088283;28;20450;-57
2023/02/24 10:53:27;;;;;;;46.60;16.00;;;10.00;99.90;;;;;;5088870;28;20712;-56
2023/02/24 10:58:55;;;;;;;48.53;15.57;;;9.80;99.90;;;;;;5089024;28;20873;-56
2023/02/24 11:04:31;;;;;;;41.78;16.05;;;9.60;1.00;;;;;;5069479;28;20370;-56
2023/02/24 11:07:23;;;;;;;52.45;15.65;;;9.60;1.00;;;;;;5069794;28;20416;-56
2023/02/24 11:10:12;;;;;;;57.42;17.13;;;9.60;1.00;;;;;;5069200;28;20383;-56
2023/02/24 11:18:38;;;;;;;51.47;17.95;;;9.60;99.90;;;;;;5088661;28;20377;-56
2023/02/24 11:21:11;;;;;;;45.22;16.08;;;9.60;99.90;;;;;;5090134;28;20385;-56
2023/02/24 11:23:41;;;;;;;52.58;15.75;;;10.10;46.90;;;;;;5087967;28;20478;-56
2023/02/24 11:26:10;;;;;;;52.90;17.08;;;9.70;99.90;;;;;;5078591;28;20407;-55
2023/02/24 11:29:06;;;;;;;48.15;17.48;;;9.60;99.90;;;;;;5067972;28;20412;-56
2023/02/24 11:31:35;;;;;;;48.00;16.95;;;9.60;99.90;;;;;;5067933;28;20480;-56
2023/02/24 11:34:00;;;;;;;47.38;16.05;;;9.60;99.90;;;;;;5068620;28;20470;-56
2023/02/24 11:36:42;;;;;;;43.28;15.32;;;9.90;99.90;;;;;;5068219;28;20853;-55
2023/02/24 11:39:37;;;;;;;45.17;15.40;;;9.70;1.00;;;;;;5069095;28;20881;-55
2023/02/24 11:42:10;;;;;;;52.08;16.25;;;9.70;93.10;;;;;;5069132;28;20426;-56
2023/02/24 11:45:01;;;;;;;43.67;15.07;;;9.80;24.50;;;;;;5079855;28;20400;-56
2023/02/24 11:47:35;;;;;;;45.90;16.90;;;9.80;1.00;;;;;;5084878;28;20396;-56
2023/02/24 11:50:04;;;;;;;44.70;14.63;;;9.80;1.00;;;;;;5075120;28;20417;-56
2023/02/24 11:52:34;;;;;;;44.97;16.58;;;9.70;1.00;;;;;;5088607;28;20958;-56
2023/02/24 11:55:02;;;;;;;49.28;16.63;;;9.70;1.00;;;;;;5082348;28;20904;-56
2023/02/24 11:57:37;;;;;;;47.80;16.38;;;9.80;1.00;;;;;;5087667;28;20420;-56
2023/02/24 12:00:19;;;;;;;48.92;16.17;;;9.90;1.00;;;;;;5064158;28;20470;-56
2023/02/24 12:03:08;;;;;;;42.88;16.10;;;10.10;1.00;;;;;;5083810;28;20488;-56
2023/02/24 12:05:38;;;;;;;51.25;15.73;;;10.10;99.90;;;;;;5066082;28;20392;-56
2023/02/24 12:08:27;;;;;;;42.08;15.18;;;10.30;1.00;;;;;;5072891;28;20386;-56
2023/02/24 12:11:04;;;;;;;47.90;15.70;;;10.20;1.00;;;;;;5068231;28;20914;-56
2023/02/24 12:13:36;;;;;;;41.00;15.60;;;10.10;1.00;;;;;;5074449;28;20399;-56
2023/02/24 12:16:09;;;;;;;46.60;17.00;;;10.20;99.90;;;;;;5076908;28;20898;-56
2023/02/24 12:18:39;;;;;;;41.47;15.95;;;10.50;99.90;;;;;;5090324;28;20427;-58
2023/02/24 12:21:29;;;;;;;48.05;17.05;;;10.70;18.50;;;;;;5092753;28;20393;-57
2023/02/24 12:23:56;;;;;;;48.58;16.25;;;10.90;99.90;;;;;;5081418;28;20423;-56
2023/02/24 12:26:27;;;;;;;44.80;16.60;;;11.00;99.90;;;;;;5071655;28;20462;-56
2023/02/24 12:29:21;;;;;;;56.42;18.38;;;11.20;1.00;;;;;;5072597;28;20384;-56
2023/02/24 12:32:06;;;;;;;44.95;15.93;;;11.30;99.90;;;;;;5072146;28;20395;-56
2023/02/24 12:34:37;;;;;;;44.97;16.13;;;11.30;99.90;;;;;;5071457;28;20375;-56
2023/02/24 12:37:47;;;;;;;47.97;18.38;;;11.50;1.00;;;;;;5091382;28;20898;-56
2023/02/24 12:40:37;;;;;;;39.92;15.30;;;11.40;1.00;;;;;;5072059;28;20392;-56
2023/02/24 12:43:22;;;;;;;45.03;15.63;;;11.40;1.00;;;;;;5072132;28;20406;-56
2023/02/24 12:46:06;;;;;;;45.13;15.70;;;11.20;1.00;;;;;;5071804;28;20384;-56
2023/02/24 12:48:47;;;;;;;39.70;15.05;;;11.20;1.00;;;;;;5071346;28;20384;-56
2023/02/24 12:51:19;;;;;;;42.50;15.20;;;11.40;1.00;;;;;;5072262;28;20430;-56
2023/02/24 12:53:52;;;;;;;45.15;14.88;;;11.30;1.00;;;;;;5071731;28;20388;-56
2023/02/24 12:56:26;;;;;;;43.47;14.90;;;11.30;1.00;;;;;;5072146;28;20514;-56
2023/02/24 12:58:57;;;;;;;47.15;15.52;;;11.30;1.00;;;;;;5072220;28;20407;-56
2023/02/24 13:01:35;;;;;;;42.20;14.88;;;11.50;1.00;;;;;;5071645;28;20822;-57
2023/02/24 13:04:21;;;;;;;43.25;14.32;;;11.70;99.90;;;;;;5072036;28;20383;-57
2023/02/24 13:07:03;;;;;;;43.03;15.50;;;11.90;99.90;;;;;;5059968;28;20630;-59
2023/02/24 13:09:46;;;;;;;34.10;12.53;;;11.90;43.90;;;;;;5081728;28;20843;-56
2023/02/24 13:12:19;;;;;;;35.20;13.30;;;11.80;5.20;;;;;;5091714;28;20448;-56
2023/02/24 13:14:45;;;;;;;39.67;15.88;;;11.80;1.00;;;;;;5076225;28;20399;-56
2023/02/24 13:17:11;;;;;;;47.35;13.70;;;11.70;1.00;;;;;;5088907;28;20852;-56
2023/02/24 13:19:38;;;;;;;46.35;14.10;;;11.70;1.00;;;;;;5091132;28;20470;-56
2023/02/24 13:22:26;;;;;;;35.05;12.43;;;11.60;1.00;;;;;;5082149;28;20411;-57
2023/02/24 13:25:23;;;;;;;35.73;12.33;;;11.50;1.00;;;;;;5078369;28;20501;-56
2023/02/24 13:28:21;;;;;;;40.10;13.20;;;11.40;52.30;;;;;;5077258;28;20422;-56
2023/02/24 13:30:57;;;;;;;33.97;13.10;;;11.40;46.30;;;;;;5091030;28;20394;-56
2023/02/24 13:33:28;;;;;;;33.67;11.88;;;11.40;84.70;;;;;;5089370;28;20889;-57
2023/02/24 13:36:21;;;;;;;33.00;11.80;;;11.40;92.70;;;;;;5091357;28;20432;-57
2023/02/24 13:39:06;;;;;;;40.17;12.50;;;11.20;69.70;;;;;;5091913;28;20390;-57
2023/02/24 13:41:35;;;;;;;33.72;12.57;;;11.00;68.00;;;;;;5050402;28;20423;-57
2023/02/24 13:44:23;;;;;;;30.98;12.23;;;11.10;37.00;;;;;;5051297;28;20386;-57